Airfield :
LOGIN :

Register | Disclaimer

   EN    FR    IT 

 










Legend :    VFR   Marginal VFR   IFR   Intensive IFR   Very Intensive IFR
Visi :
Ceiling :
>= 8 km
>= 3000ft
5 to 8 km
1000 to 3000 ft
1500m to 5 km
500 to 1000 ft
800 to 1500m
200 to 500 ft
< 800m
< 200 ft
Symbols :   Thunderstorms  Fog  Heavy snow  Heavy precipitations  Wind > 20 kt
SIGMETs :     Misc.  Thunderstorms  Icing  Turbulence  Mountain Waves  Volcanic Ashes







- Airport Elevation : 1830 ft


EBLB - Butgenbach Elsenborn

CURRENT METAR :
  • 190455Z AUTO 05008KT 5000 OVC005/// M01/M02 Q1018 YLO

EXPIRED METARs :
  • 190447Z AUTO 05007KT 7000 BKN006/// M01/M02 Q1018 YLO
  • 190425Z AUTO 06008KT 9000 BKN007/// M01/M02 Q1018 GRN
  • 190418Z AUTO 06008KT 9000 OVC007/// M01/M02 Q1018 GRN
  • 190355Z AUTO 06007KT 6000 BKN006/// M02/M03 Q1018 YLO
  • 190343Z AUTO 06007KT 5000 BKN006/// M02/M03 Q1018 YLO
  • 190325Z AUTO 05009KT 6000 BKN010/// M02/M04 Q1018 GRN
  • 190255Z AUTO 06006KT 9999 BKN010/// M03/M05 Q1019 GRN
  • 190242Z AUTO 08004KT 9999 SCT010/// M03/M05 Q1019 GRN
  • 190225Z AUTO 08003KT 9999 FEW012/// M03/M06 Q1019 BLU
  • 190223Z AUTO 08003KT 9999 FEW012/// M03/M06 Q1019 BLU

Expired Forecast.
No reported NOTAMs for that airfield.



MET'MAP, your aeronautical weather chart ! - Copyright ORBIFLY December 2007 - Disclaimer

ORBIFLY MET'MAP TEAM :

Programming & Development : Alexandra Zaïnal
Concept & Development : Baudouin d'Aumeries
Co-Development & Prog : Marc-Olivier Méhu
Technical & hardware support : Manuel Goepfert

Contact : metmap@orbifly.com




SOURCES & CREDITS :

   NOAA